createdAt,value
2017-10-15T00:01:30.630Z,20.799999999999997
2017-10-15T00:03:30.764Z,21.9
2017-10-15T00:05:30.858Z,21.299999999999997
2017-10-15T00:07:30.988Z,21.9
2017-10-15T00:09:31.101Z,21.9
2017-10-15T00:11:31.202Z,21.299999999999997
2017-10-15T00:13:31.321Z,21.9
2017-10-15T00:15:31.438Z,21.299999999999997
2017-10-15T00:17:31.649Z,22.4
2017-10-15T00:19:31.683Z,21.9
2017-10-15T00:21:32.484Z,20.799999999999997
2017-10-15T00:23:32.397Z,20.799999999999997
2017-10-15T00:25:32.527Z,20.799999999999997
2017-10-15T00:27:32.623Z,20.799999999999997
2017-10-15T00:29:32.840Z,21.299999999999997
2017-10-15T00:31:32.997Z,20.799999999999997
2017-10-15T00:33:33.131Z,20.799999999999997
2017-10-15T00:35:33.306Z,20.799999999999997
2017-10-15T00:37:33.445Z,21.299999999999997
2017-10-15T00:39:33.809Z,20.799999999999997
2017-10-15T00:41:33.883Z,20.799999999999997
2017-10-15T00:43:34.314Z,20.799999999999997
2017-10-15T00:45:34.101Z,20.799999999999997
2017-10-15T00:47:34.245Z,20.799999999999997
2017-10-15T00:49:34.537Z,21.299999999999997
2017-10-15T00:51:34.447Z,20.799999999999997
2017-10-15T00:53:34.658Z,20.799999999999997
2017-10-15T00:55:34.954Z,21.299999999999997
2017-10-15T00:57:34.881Z,20.799999999999997
2017-10-15T00:59:35.068Z,21.299999999999997
2017-10-15T01:01:35.281Z,21.299999999999997
2017-10-15T01:03:35.352Z,20.799999999999997
2017-10-15T01:05:35.507Z,21.9
2017-10-15T01:07:35.655Z,20.799999999999997
2017-10-15T01:09:35.776Z,21.299999999999997
2017-10-15T01:11:35.931Z,20.799999999999997
2017-10-15T01:13:36.062Z,20.799999999999997
2017-10-15T01:15:36.196Z,20.799999999999997
2017-10-15T01:17:36.313Z,20.799999999999997
2017-10-15T01:19:36.397Z,20.799999999999997
2017-10-15T01:21:36.537Z,21.299999999999997
2017-10-15T01:23:36.663Z,20.200000000000003
2017-10-15T01:25:36.953Z,20.799999999999997
2017-10-15T01:27:37.098Z,20.799999999999997
2017-10-15T01:29:37.270Z,20.799999999999997
2017-10-15T01:31:37.383Z,20.799999999999997
2017-10-15T01:33:37.532Z,20.799999999999997
2017-10-15T01:35:37.651Z,20.799999999999997
2017-10-15T01:37:37.771Z,20.799999999999997
2017-10-15T01:39:37.880Z,20.799999999999997
2017-10-15T01:41:38.032Z,21.299999999999997
2017-10-15T01:43:38.143Z,20.799999999999997
2017-10-15T01:45:38.271Z,21.299999999999997
2017-10-15T01:47:38.369Z,20.799999999999997
2017-10-15T01:49:38.660Z,20.799999999999997
2017-10-15T01:51:38.616Z,21.299999999999997
2017-10-15T01:53:38.773Z,20.799999999999997
2017-10-15T01:55:38.855Z,20.799999999999997
2017-10-15T01:57:38.986Z,20.799999999999997
2017-10-15T01:59:39.134Z,20.799999999999997
2017-10-15T02:01:39.243Z,20.799999999999997
2017-10-15T02:03:39.356Z,20.799999999999997
2017-10-15T02:05:39.757Z,20.799999999999997
2017-10-15T02:07:39.602Z,20.799999999999997
2017-10-15T02:09:39.768Z,20.799999999999997
2017-10-15T02:11:39.890Z,20.799999999999997
2017-10-15T02:13:40.035Z,20.799999999999997
2017-10-15T02:15:40.212Z,20.799999999999997
2017-10-15T02:17:40.241Z,20.799999999999997
2017-10-15T02:19:40.413Z,20.799999999999997
2017-10-15T02:21:40.542Z,20.799999999999997
2017-10-15T02:23:40.646Z,20.799999999999997
2017-10-15T02:25:40.791Z,20.799999999999997
2017-10-15T02:27:41.039Z,20.799999999999997
2017-10-15T02:29:41.107Z,20.799999999999997
2017-10-15T02:31:41.253Z,20.799999999999997
2017-10-15T02:33:41.378Z,20.799999999999997
2017-10-15T02:35:41.542Z,20.799999999999997
2017-10-15T02:37:41.675Z,20.799999999999997
2017-10-15T02:39:41.817Z,20.799999999999997
2017-10-15T02:41:41.929Z,20.799999999999997
2017-10-15T02:43:42.078Z,20.799999999999997
2017-10-15T02:45:42.304Z,20.799999999999997
2017-10-15T02:47:42.427Z,20.799999999999997
2017-10-15T02:49:42.584Z,20.799999999999997
2017-10-15T02:51:42.932Z,20.799999999999997
2017-10-15T02:53:42.889Z,20.799999999999997
2017-10-15T02:55:43.034Z,20.799999999999997
2017-10-15T02:57:43.182Z,21.299999999999997
2017-10-15T02:59:43.255Z,20.799999999999997
2017-10-15T03:01:43.473Z,20.799999999999997
2017-10-15T03:03:43.874Z,20.200000000000003
2017-10-15T03:05:43.699Z,20.799999999999997
2017-10-15T03:07:43.848Z,20.799999999999997
2017-10-15T03:09:44.046Z,20.200000000000003
2017-10-15T03:11:44.100Z,20.200000000000003
2017-10-15T03:13:44.234Z,20.799999999999997
2017-10-15T03:15:44.339Z,20.799999999999997
2017-10-15T03:17:44.519Z,20.799999999999997
2017-10-15T03:19:44.654Z,20.799999999999997
2017-10-15T03:21:44.930Z,20.799999999999997
2017-10-15T03:23:45.091Z,20.799999999999997
2017-10-15T03:25:45.221Z,20.799999999999997
2017-10-15T03:27:45.442Z,20.799999999999997
2017-10-15T03:29:45.457Z,20.799999999999997
2017-10-15T03:31:45.728Z,20.799999999999997
2017-10-15T03:33:45.723Z,20.799999999999997
2017-10-15T03:35:45.904Z,20.799999999999997
2017-10-15T03:37:45.992Z,20.799999999999997
2017-10-15T03:39:46.322Z,20.799999999999997
2017-10-15T03:41:46.286Z,20.799999999999997
2017-10-15T03:43:46.446Z,20.799999999999997
2017-10-15T03:45:46.640Z,20.799999999999997
2017-10-15T03:47:46.687Z,20.799999999999997
2017-10-15T03:49:46.859Z,20.799999999999997
2017-10-15T03:51:46.920Z,20.200000000000003
2017-10-15T03:53:47.050Z,20.799999999999997
2017-10-15T03:55:47.194Z,20.799999999999997
2017-10-15T03:57:47.434Z,20.799999999999997
2017-10-15T03:59:47.428Z,20.200000000000003
2017-10-15T04:01:47.559Z,20.799999999999997
2017-10-15T04:03:47.629Z,20.799999999999997
2017-10-15T04:05:47.766Z,20.799999999999997
2017-10-15T04:07:47.860Z,20.799999999999997
2017-10-15T04:09:48.078Z,20.200000000000003
2017-10-15T04:11:48.235Z,20.799999999999997
2017-10-15T04:13:48.245Z,20.799999999999997
2017-10-15T04:15:48.441Z,20.799999999999997
2017-10-15T04:17:48.491Z,20.799999999999997
2017-10-15T04:19:48.604Z,20.799999999999997
2017-10-15T04:21:48.726Z,20.799999999999997
2017-10-15T04:23:48.824Z,20.799999999999997
2017-10-15T04:25:48.951Z,20.799999999999997
2017-10-15T04:27:49.199Z,20.799999999999997
2017-10-15T04:29:49.268Z,20.799999999999997
2017-10-15T04:31:49.415Z,20.799999999999997
2017-10-15T04:33:49.566Z,20.799999999999997
2017-10-15T04:35:49.678Z,19.700000000000003
2017-10-15T04:37:49.890Z,20.799999999999997
2017-10-15T04:39:49.988Z,20.799999999999997
2017-10-15T04:41:50.084Z,20.200000000000003
2017-10-15T04:43:50.180Z,20.799999999999997
2017-10-15T04:45:50.330Z,19.700000000000003
2017-10-15T04:47:50.475Z,20.799999999999997
2017-10-15T04:49:50.537Z,19.700000000000003
2017-10-15T04:51:50.687Z,20.799999999999997
2017-10-15T04:53:50.952Z,20.200000000000003
2017-10-15T04:55:51.382Z,20.200000000000003
2017-10-15T04:57:51.200Z,20.799999999999997
2017-10-15T04:59:51.383Z,20.799999999999997
2017-10-15T05:01:51.436Z,20.799999999999997
2017-10-15T05:03:51.643Z,20.799999999999997
2017-10-15T05:05:51.708Z,20.799999999999997
2017-10-15T05:07:51.824Z,19.700000000000003
2017-10-15T05:09:51.987Z,20.200000000000003
2017-10-15T05:11:52.232Z,20.200000000000003
2017-10-15T05:13:52.230Z,20.200000000000003
2017-10-15T05:15:52.338Z,20.200000000000003
2017-10-15T05:17:52.490Z,20.200000000000003
2017-10-15T05:19:52.621Z,20.200000000000003
2017-10-15T05:21:53.568Z,20.200000000000003
2017-10-15T05:23:52.901Z,20.799999999999997
2017-10-15T05:25:53.132Z,20.799999999999997
2017-10-15T05:27:53.257Z,19.700000000000003
2017-10-15T05:29:53.328Z,20.200000000000003
2017-10-15T05:31:53.443Z,19.700000000000003
2017-10-15T05:33:53.581Z,20.200000000000003
2017-10-15T05:35:53.645Z,20.200000000000003
2017-10-15T05:37:53.776Z,19.700000000000003
2017-10-15T05:39:53.903Z,20.799999999999997
2017-10-15T05:41:53.984Z,20.799999999999997
2017-10-15T05:43:54.133Z,20.799999999999997
2017-10-15T05:45:54.285Z,19.700000000000003
2017-10-15T05:47:54.346Z,19.700000000000003
2017-10-15T05:49:54.522Z,20.799999999999997
2017-10-15T05:51:54.643Z,20.200000000000003
2017-10-15T05:53:54.735Z,19.700000000000003
2017-10-15T05:55:54.861Z,20.200000000000003
2017-10-15T05:57:55.025Z,20.200000000000003
2017-10-15T05:59:55.117Z,19.700000000000003
2017-10-15T06:01:55.223Z,19.700000000000003
2017-10-15T06:03:55.511Z,19.700000000000003
2017-10-15T06:05:55.507Z,20.200000000000003
2017-10-15T06:07:55.634Z,19.700000000000003
2017-10-15T06:09:55.709Z,20.799999999999997
2017-10-15T06:11:55.877Z,19.700000000000003
2017-10-15T06:13:55.973Z,20.799999999999997
2017-10-15T06:15:56.110Z,19.700000000000003
2017-10-15T06:17:56.230Z,19.700000000000003
2017-10-15T06:19:56.302Z,19.700000000000003
2017-10-15T06:21:56.434Z,20.200000000000003
2017-10-15T06:23:56.592Z,20.200000000000003
2017-10-15T06:25:56.725Z,20.799999999999997
2017-10-15T06:27:56.896Z,20.799999999999997
2017-10-15T06:29:57.191Z,20.799999999999997
2017-10-15T06:31:57.252Z,19.700000000000003
2017-10-15T06:33:57.393Z,19.700000000000003
2017-10-15T06:35:57.665Z,20.200000000000003
2017-10-15T06:37:57.758Z,20.200000000000003
2017-10-15T06:39:57.989Z,20.200000000000003
2017-10-15T06:41:58.021Z,19.700000000000003
2017-10-15T06:43:58.116Z,20.200000000000003
2017-10-15T06:45:58.272Z,20.200000000000003
2017-10-15T06:47:58.394Z,19.700000000000003
2017-10-15T06:49:58.539Z,19.700000000000003
2017-10-15T06:51:58.685Z,19.700000000000003
2017-10-15T06:53:58.777Z,19.700000000000003
2017-10-15T06:55:58.880Z,19.700000000000003
2017-10-15T06:57:59.139Z,19.200000000000003
2017-10-15T06:59:59.295Z,19.700000000000003
2017-10-15T07:01:59.434Z,19.700000000000003
2017-10-15T07:03:59.545Z,19.200000000000003
2017-10-15T07:05:59.671Z,19.200000000000003
2017-10-15T07:07:59.991Z,19.200000000000003
2017-10-15T07:09:59.966Z,19.700000000000003
2017-10-15T07:12:00.078Z,19.200000000000003
2017-10-15T07:14:00.224Z,19.200000000000003
2017-10-15T07:16:00.438Z,19.700000000000003
2017-10-15T07:18:00.579Z,19.700000000000003
2017-10-15T07:20:00.742Z,19.200000000000003
2017-10-15T07:22:00.887Z,19.200000000000003
2017-10-15T07:24:01.016Z,19.700000000000003
2017-10-15T07:26:01.429Z,19.700000000000003
2017-10-15T07:28:01.389Z,19.700000000000003
2017-10-15T07:30:01.523Z,20.200000000000003
2017-10-15T07:32:02.021Z,20.799999999999997
2017-10-15T07:34:02.412Z,19.700000000000003
2017-10-15T07:36:02.279Z,20.200000000000003
2017-10-15T07:38:02.465Z,20.200000000000003
2017-10-15T07:40:02.532Z,20.200000000000003
2017-10-15T07:42:02.688Z,20.200000000000003
2017-10-15T07:44:02.824Z,20.200000000000003
2017-10-15T07:46:02.990Z,20.200000000000003
2017-10-15T07:48:03.091Z,20.799999999999997
2017-10-15T07:50:03.238Z,20.799999999999997
2017-10-15T07:52:03.315Z,20.200000000000003
2017-10-15T07:54:03.499Z,20.799999999999997
2017-10-15T07:56:03.657Z,21.299999999999997
2017-10-15T07:58:03.766Z,21.299999999999997
2017-10-15T08:00:03.949Z,20.799999999999997
2017-10-15T08:02:04.051Z,20.799999999999997
2017-10-15T08:04:04.170Z,20.799999999999997
2017-10-15T08:06:04.319Z,21.299999999999997
2017-10-15T08:08:04.472Z,21.299999999999997
2017-10-15T08:10:04.615Z,20.799999999999997
2017-10-15T08:12:04.897Z,20.799999999999997
2017-10-15T08:14:04.875Z,21.299999999999997
2017-10-15T08:16:05.138Z,20.799999999999997
2017-10-15T08:18:05.182Z,20.799999999999997
2017-10-15T08:20:05.331Z,21.299999999999997
2017-10-15T08:22:05.367Z,20.799999999999997
2017-10-15T08:24:05.483Z,21.299999999999997
2017-10-15T08:26:05.705Z,20.799999999999997
2017-10-15T08:28:05.858Z,21.9
2017-10-15T08:30:05.995Z,21.299999999999997
2017-10-15T08:32:06.072Z,20.799999999999997
2017-10-15T08:34:06.186Z,21.9
2017-10-15T08:36:06.277Z,21.299999999999997
2017-10-15T08:38:06.442Z,20.799999999999997
2017-10-15T08:40:06.540Z,21.299999999999997
2017-10-15T08:42:06.652Z,21.299999999999997
2017-10-15T08:44:06.783Z,21.9
2017-10-15T08:46:06.934Z,21.9
2017-10-15T08:48:07.304Z,21.299999999999997
2017-10-15T08:50:07.151Z,20.799999999999997
2017-10-15T08:52:07.278Z,21.299999999999997
2017-10-15T08:54:07.416Z,21.299999999999997
2017-10-15T08:56:07.513Z,21.9
2017-10-15T08:58:07.807Z,21.9
2017-10-15T09:00:07.916Z,21.9
2017-10-15T09:02:08.085Z,21.9
2017-10-15T09:04:08.173Z,22.4
2017-10-15T09:06:08.285Z,21.9
2017-10-15T09:08:08.385Z,21.9
2017-10-15T09:10:08.565Z,21.9
2017-10-15T09:12:08.655Z,21.9
2017-10-15T09:14:08.873Z,21.9
2017-10-15T09:16:08.888Z,21.9
2017-10-15T09:18:09.006Z,21.9
2017-10-15T09:20:09.104Z,21.9
2017-10-15T09:22:09.268Z,21.9
2017-10-15T09:24:09.489Z,21.9
2017-10-15T09:26:09.626Z,21.9
2017-10-15T09:28:09.750Z,21.9
2017-10-15T09:30:09.886Z,21.9
2017-10-15T09:32:09.995Z,21.9
2017-10-15T09:34:10.140Z,21.9
2017-10-15T09:36:10.230Z,21.9
2017-10-15T09:38:10.434Z,21.9
2017-10-15T09:40:10.505Z,21.9
2017-10-15T09:42:10.616Z,21.9
2017-10-15T09:44:10.782Z,21.9
2017-10-15T09:46:10.942Z,21.9
2017-10-15T09:48:11.937Z,22.9
2017-10-15T09:50:11.244Z,22.4
2017-10-15T09:52:11.369Z,22.4
2017-10-15T09:54:11.700Z,21.9
2017-10-15T09:56:11.640Z,22.4
2017-10-15T09:58:11.771Z,21.9
2017-10-15T10:00:11.963Z,22.9
2017-10-15T10:02:12.053Z,21.9
2017-10-15T10:04:12.123Z,22.9
2017-10-15T10:06:17.387Z,22.4
2017-10-15T10:08:12.443Z,22.4
2017-10-15T10:10:12.565Z,21.9
2017-10-15T10:12:12.694Z,22.9
2017-10-15T10:14:12.861Z,22.4
2017-10-15T10:16:12.953Z,22.9
2017-10-15T10:18:13.097Z,22.9
2017-10-15T10:20:13.186Z,22.9
2017-10-15T10:22:13.332Z,21.9
2017-10-15T10:24:13.430Z,22.9
2017-10-15T10:26:13.532Z,22.9
2017-10-15T10:28:13.704Z,23.5
2017-10-15T10:30:13.768Z,22.9
2017-10-15T10:32:14.198Z,22.9
2017-10-15T10:34:14.097Z,22.9
2017-10-15T10:36:14.229Z,22.9
2017-10-15T10:38:14.367Z,23.5
2017-10-15T10:40:14.501Z,23.5
2017-10-15T10:42:14.613Z,23.5
2017-10-15T10:44:14.737Z,22.9
2017-10-15T10:46:15.007Z,23.5
2017-10-15T10:48:15.035Z,23.5
2017-10-15T10:50:15.230Z,22.9
2017-10-15T10:52:15.302Z,22.9
2017-10-15T10:54:15.391Z,23.5
2017-10-15T10:56:15.552Z,23.5
2017-10-15T10:58:15.648Z,22.9
2017-10-15T11:00:15.763Z,22.9
2017-10-15T11:02:15.879Z,22.9
2017-10-15T11:04:15.978Z,22.9
2017-10-15T11:06:16.148Z,23.5
2017-10-15T11:08:16.260Z,23.5
2017-10-15T11:10:16.324Z,23.5
2017-10-15T11:12:16.447Z,24
2017-10-15T11:14:16.581Z,23.5
2017-10-15T11:16:16.732Z,22.9
2017-10-15T11:18:16.833Z,22.9
2017-10-15T11:20:16.933Z,23.5
2017-10-15T11:22:17.190Z,22.9
2017-10-15T11:24:17.225Z,23.5
2017-10-15T11:26:17.333Z,23.5
2017-10-15T11:28:17.599Z,23.5
2017-10-15T11:30:17.740Z,23.5
2017-10-15T11:32:18.058Z,23.5
2017-10-15T11:34:18.061Z,24
2017-10-15T11:36:18.231Z,23.5
2017-10-15T11:38:18.422Z,23.5
2017-10-15T11:40:18.544Z,23.5
2017-10-15T11:42:18.738Z,24
2017-10-15T11:44:18.867Z,24
2017-10-15T11:46:19.017Z,23.5
2017-10-15T11:48:20.038Z,24
2017-10-15T11:50:19.239Z,24
2017-10-15T11:52:19.385Z,24
2017-10-15T11:54:19.663Z,24
2017-10-15T11:56:19.647Z,24.5
2017-10-15T11:58:20.157Z,24
2017-10-15T12:00:19.944Z,24
2017-10-15T12:02:20.150Z,24
2017-10-15T12:04:20.272Z,24
2017-10-15T12:06:20.460Z,24.5
2017-10-15T12:08:20.854Z,24
2017-10-15T12:10:20.648Z,24
2017-10-15T12:12:20.807Z,24.5
2017-10-15T12:14:20.962Z,24
2017-10-15T12:16:21.114Z,24.5
2017-10-15T12:18:21.184Z,24
2017-10-15T12:20:21.495Z,24
2017-10-15T12:22:21.561Z,24
2017-10-15T12:24:21.694Z,24.5
2017-10-15T12:26:21.825Z,24
2017-10-15T12:28:21.973Z,24
2017-10-15T12:30:22.147Z,25.1
2017-10-15T12:32:22.311Z,24.5
2017-10-15T12:34:22.417Z,24
2017-10-15T12:36:22.612Z,25.1
2017-10-15T12:38:23.231Z,24.5
2017-10-15T12:40:22.981Z,24
2017-10-15T12:42:23.126Z,24.5
2017-10-15T12:44:23.254Z,24
2017-10-15T12:46:23.475Z,24.5
2017-10-15T12:48:23.512Z,24.5
2017-10-15T12:50:23.638Z,24.5
2017-10-15T12:52:23.768Z,24.5
2017-10-15T12:54:23.953Z,24
2017-10-15T12:56:24.145Z,24.5
2017-10-15T12:58:24.190Z,24
2017-10-15T13:00:24.292Z,24
2017-10-15T13:02:24.725Z,24.5
2017-10-15T13:04:24.526Z,25.1
2017-10-15T13:06:24.688Z,24.5
2017-10-15T13:08:24.818Z,25.1
2017-10-15T13:10:25.031Z,25.1
2017-10-15T13:12:25.092Z,24.5
2017-10-15T13:14:25.225Z,24.5
2017-10-15T13:16:25.363Z,25.1
2017-10-15T13:18:25.564Z,24.5
2017-10-15T13:20:25.593Z,24
2017-10-15T13:22:25.714Z,24.5
2017-10-15T13:24:25.825Z,25.1
2017-10-15T13:26:26.009Z,24.5
2017-10-15T13:28:26.094Z,24
2017-10-15T13:30:26.193Z,24.5
2017-10-15T13:32:26.415Z,24
2017-10-15T13:34:26.644Z,24.5
2017-10-15T13:36:26.632Z,24
2017-10-15T13:38:26.777Z,24.5
2017-10-15T13:40:27.043Z,24.5
2017-10-15T13:42:27.110Z,24
2017-10-15T13:44:27.244Z,24.5
2017-10-15T13:46:27.504Z,24.5
2017-10-15T13:48:27.585Z,24.5
2017-10-15T13:50:27.707Z,24
2017-10-15T13:52:27.874Z,25.1
2017-10-15T13:54:28.004Z,24
2017-10-15T13:56:28.110Z,24
2017-10-15T13:58:28.227Z,24.5
2017-10-15T14:00:28.377Z,24.5
2017-10-15T14:02:28.506Z,24
2017-10-15T14:04:28.659Z,24
2017-10-15T14:06:28.736Z,24
2017-10-15T14:08:28.875Z,24.5
2017-10-15T14:10:29.014Z,24
2017-10-15T14:12:29.259Z,24
2017-10-15T14:14:29.330Z,24
2017-10-15T14:16:29.503Z,24
2017-10-15T14:18:29.598Z,24.5
2017-10-15T14:20:29.747Z,24.5
2017-10-15T14:22:29.823Z,24
2017-10-15T14:24:29.976Z,24
2017-10-15T14:26:30.072Z,24
2017-10-15T14:28:30.227Z,24
2017-10-15T14:30:30.328Z,24
2017-10-15T14:32:30.663Z,24
2017-10-15T14:34:30.591Z,25.1
2017-10-15T14:36:30.816Z,24
2017-10-15T14:38:30.862Z,24.5
2017-10-15T14:40:31.013Z,24
2017-10-15T14:42:31.200Z,23.5
2017-10-15T14:44:31.259Z,24
2017-10-15T14:46:31.360Z,24.5
2017-10-15T14:48:31.495Z,24.5
2017-10-15T14:50:31.644Z,24.5
2017-10-15T14:52:31.855Z,24.5
2017-10-15T14:54:31.928Z,24.5
2017-10-15T14:56:32.063Z,24
2017-10-15T14:58:32.288Z,24.5
2017-10-15T15:00:32.354Z,24
2017-10-15T15:02:32.523Z,24
2017-10-15T15:04:34.307Z,24
2017-10-15T15:06:32.784Z,24.5
2017-10-15T15:08:32.917Z,24
2017-10-15T15:10:33.030Z,24.5
2017-10-15T15:12:33.293Z,24
2017-10-15T15:14:33.422Z,24
2017-10-15T15:16:33.521Z,24
2017-10-15T15:18:33.689Z,23.5
2017-10-15T15:20:33.798Z,24.5
2017-10-15T15:22:33.891Z,24
2017-10-15T15:24:34.027Z,24.5
2017-10-15T15:26:34.148Z,24
2017-10-15T15:28:34.245Z,23.5
2017-10-15T15:30:34.480Z,24
2017-10-15T15:32:34.648Z,23.5
2017-10-15T15:34:34.878Z,24
2017-10-15T15:36:34.928Z,24
2017-10-15T15:38:35.142Z,24
2017-10-15T15:40:35.189Z,24.5
2017-10-15T15:42:35.325Z,24
2017-10-15T15:44:35.496Z,24.5
2017-10-15T15:46:35.715Z,24
2017-10-15T15:48:35.891Z,23.5
2017-10-15T15:50:35.904Z,24
2017-10-15T15:52:36.085Z,24
2017-10-15T15:54:36.320Z,24
2017-10-15T15:56:36.312Z,24
2017-10-15T15:58:36.450Z,24
2017-10-15T16:00:36.560Z,22.9
2017-10-15T16:02:36.701Z,24
2017-10-15T16:04:36.842Z,23.5
2017-10-15T16:06:36.947Z,24.5
2017-10-15T16:08:37.172Z,24
2017-10-15T16:10:37.194Z,24
2017-10-15T16:12:37.329Z,24
2017-10-15T16:14:37.445Z,24
2017-10-15T16:16:37.606Z,24
2017-10-15T16:18:37.719Z,24
2017-10-15T16:20:37.848Z,23.5
2017-10-15T16:22:37.986Z,24
2017-10-15T16:24:38.100Z,24
2017-10-15T16:26:38.189Z,23.5
2017-10-15T16:28:38.363Z,24
2017-10-15T16:30:38.498Z,24
2017-10-15T16:32:38.858Z,23.5
2017-10-15T16:34:38.902Z,23.5
2017-10-15T16:36:39.080Z,23.5
2017-10-15T16:38:39.373Z,23.5
2017-10-15T16:40:39.402Z,24
2017-10-15T16:42:39.536Z,23.5
2017-10-15T16:44:39.774Z,24
2017-10-15T16:46:39.918Z,23.5
2017-10-15T16:48:40.073Z,24
2017-10-15T16:50:40.239Z,23.5
2017-10-15T16:52:40.369Z,24
2017-10-15T16:54:40.507Z,22.9
2017-10-15T16:56:40.690Z,24
2017-10-15T16:58:40.789Z,23.5
2017-10-15T17:00:40.923Z,24
2017-10-15T17:02:41.097Z,24
2017-10-15T17:04:41.174Z,24
2017-10-15T17:06:41.304Z,23.5
2017-10-15T17:08:41.547Z,23.5
2017-10-15T17:10:41.694Z,24
2017-10-15T17:12:41.811Z,24
2017-10-15T17:14:42.200Z,24
2017-10-15T17:16:47.287Z,23.5
2017-10-15T17:18:43.266Z,23.5
2017-10-15T17:20:42.824Z,23.5
2017-10-15T17:22:42.895Z,23.5
2017-10-15T17:24:43.052Z,23.5
2017-10-15T17:26:43.252Z,23.5
2017-10-15T17:28:43.329Z,23.5
2017-10-15T17:30:43.455Z,24
2017-10-15T17:32:43.628Z,23.5
2017-10-15T17:34:43.673Z,23.5
2017-10-15T17:36:43.765Z,23.5
2017-10-15T17:38:43.953Z,22.9
2017-10-15T17:40:44.034Z,23.5
2017-10-15T17:42:44.192Z,22.9
2017-10-15T17:44:44.379Z,23.5
2017-10-15T17:46:44.479Z,23.5
2017-10-15T17:48:44.600Z,22.9
2017-10-15T17:50:44.720Z,22.9
2017-10-15T17:52:45.164Z,22.9
2017-10-15T17:54:45.152Z,23.5
2017-10-15T17:56:45.327Z,22.9
2017-10-15T17:58:45.665Z,22.9
2017-10-15T18:00:45.754Z,22.9
2017-10-15T18:02:45.897Z,22.4
2017-10-15T18:04:46.017Z,22.9
2017-10-15T18:06:46.140Z,22.9
2017-10-15T18:08:46.284Z,22.9
2017-10-15T18:10:46.409Z,22.9
2017-10-15T18:12:46.558Z,22.4
2017-10-15T18:14:46.655Z,22.9
2017-10-15T18:16:46.822Z,22.9
2017-10-15T18:18:46.935Z,22.9
2017-10-15T18:20:47.101Z,22.9
2017-10-15T18:22:47.164Z,22.4
2017-10-15T18:24:47.283Z,23.5
2017-10-15T18:26:47.391Z,22.4
2017-10-15T18:28:47.543Z,22.4
2017-10-15T18:30:47.687Z,22.4
2017-10-15T18:32:47.823Z,22.4
2017-10-15T18:34:47.947Z,22.9
2017-10-15T18:36:48.045Z,22.9
2017-10-15T18:38:48.140Z,22.4
2017-10-15T18:40:48.293Z,22.9
2017-10-15T18:42:48.471Z,22.9
2017-10-15T18:44:48.601Z,22.9
2017-10-15T18:46:48.744Z,22.4
2017-10-15T18:48:48.859Z,22.9
2017-10-15T18:50:48.988Z,22.9
2017-10-15T18:52:49.179Z,22.4
2017-10-15T18:54:49.291Z,22.9
2017-10-15T18:56:49.574Z,22.9
2017-10-15T18:58:49.702Z,22.9
2017-10-15T19:00:49.827Z,22.9
2017-10-15T19:02:49.933Z,22.4
2017-10-15T19:04:50.062Z,22.9
2017-10-15T19:06:50.195Z,21.9
2017-10-15T19:08:50.452Z,21.9
2017-10-15T19:10:50.579Z,21.9
2017-10-15T19:12:50.835Z,21.9
2017-10-15T19:14:50.783Z,21.9
2017-10-15T19:16:50.893Z,21.9
2017-10-15T19:18:51.015Z,21.9
2017-10-15T19:20:51.187Z,21.9
2017-10-15T19:22:51.331Z,22.4
2017-10-15T19:24:51.510Z,22.9
2017-10-15T19:26:51.603Z,21.9
2017-10-15T19:28:51.774Z,21.9
2017-10-15T19:30:51.872Z,21.9
2017-10-15T19:32:51.991Z,22.4
2017-10-15T19:34:52.125Z,22.4
2017-10-15T19:36:52.455Z,21.9
2017-10-15T19:38:52.389Z,21.9
2017-10-15T19:40:52.492Z,21.9
2017-10-15T19:42:52.611Z,21.9
2017-10-15T19:44:52.724Z,21.9
2017-10-15T19:46:52.911Z,21.9
2017-10-15T19:48:52.943Z,21.9
2017-10-15T19:50:53.088Z,21.9
2017-10-15T19:52:53.223Z,21.9
2017-10-15T19:54:53.643Z,21.9
2017-10-15T19:56:53.464Z,21.9
2017-10-15T19:58:53.562Z,21.9
2017-10-15T20:00:53.722Z,22.4
2017-10-15T20:02:53.821Z,21.9
2017-10-15T20:04:53.930Z,21.9
2017-10-15T20:06:54.067Z,21.9
2017-10-15T20:08:54.193Z,21.9
2017-10-15T20:10:54.268Z,21.9
2017-10-15T20:12:54.409Z,21.9
2017-10-15T20:14:54.527Z,21.9
2017-10-15T20:16:54.658Z,21.9
2017-10-15T20:18:55.062Z,21.9
2017-10-15T20:20:54.898Z,21.9
2017-10-15T20:22:55.005Z,21.9
2017-10-15T20:24:55.508Z,21.299999999999997
2017-10-15T20:26:55.385Z,22.4
2017-10-15T20:28:55.550Z,21.9
2017-10-15T20:30:55.795Z,21.299999999999997
2017-10-15T20:32:55.887Z,21.9
2017-10-15T20:34:56.238Z,22.4
2017-10-15T20:36:56.072Z,21.9
2017-10-15T20:38:56.148Z,21.9
2017-10-15T20:40:56.292Z,22.9
2017-10-15T20:42:56.402Z,22.4
2017-10-15T20:44:56.544Z,21.9
2017-10-15T20:46:56.688Z,21.299999999999997
2017-10-15T20:48:56.831Z,21.9
2017-10-15T20:50:57.340Z,21.299999999999997
2017-10-15T20:52:57.275Z,21.9
2017-10-15T20:54:57.430Z,21.9
2017-10-15T20:56:57.760Z,21.9
2017-10-15T20:58:58.034Z,21.299999999999997
2017-10-15T21:00:58.141Z,21.9
2017-10-15T21:02:58.357Z,21.9
2017-10-15T21:04:58.425Z,21.9
2017-10-15T21:06:58.559Z,21.9
2017-10-15T21:08:58.960Z,21.9
2017-10-15T21:10:58.823Z,21.299999999999997
2017-10-15T21:12:58.962Z,21.9
2017-10-15T21:14:59.340Z,21.9
2017-10-15T21:16:59.426Z,21.9
2017-10-15T21:18:59.539Z,21.9
2017-10-15T21:20:59.680Z,21.9
2017-10-15T21:22:59.864Z,21.299999999999997
2017-10-15T21:24:59.983Z,21.9
2017-10-15T21:27:00.065Z,22.4
2017-10-15T21:29:00.190Z,21.9
2017-10-15T21:31:00.339Z,21.9
2017-10-15T21:33:00.474Z,21.9
2017-10-15T21:35:00.581Z,21.9
2017-10-15T21:37:00.722Z,22.4
2017-10-15T21:39:00.886Z,21.9
2017-10-15T21:41:00.991Z,21.299999999999997
2017-10-15T21:43:01.124Z,21.9
2017-10-15T21:45:01.287Z,21.299999999999997
2017-10-15T21:47:01.938Z,21.9
2017-10-15T21:49:01.904Z,21.9
2017-10-15T21:51:02.000Z,21.9
2017-10-15T21:53:02.143Z,21.9
2017-10-15T21:55:02.458Z,21.9
2017-10-15T21:57:02.672Z,22.4
2017-10-15T21:59:02.818Z,21.9
2017-10-15T22:01:02.887Z,21.9
2017-10-15T22:03:03.014Z,21.9
2017-10-15T22:05:03.115Z,21.9
2017-10-15T22:07:03.214Z,21.9
2017-10-15T22:09:03.391Z,21.9
2017-10-15T22:11:03.518Z,22.4
2017-10-15T22:13:03.619Z,21.9
2017-10-15T22:15:03.742Z,21.9
2017-10-15T22:17:04.001Z,21.9
2017-10-15T22:19:04.162Z,21.299999999999997
2017-10-15T22:21:04.244Z,21.9
2017-10-15T22:23:04.399Z,21.299999999999997
2017-10-15T22:25:04.529Z,21.299999999999997
2017-10-15T22:27:04.640Z,21.9
2017-10-15T22:29:04.805Z,21.9
2017-10-15T22:31:05.075Z,21.299999999999997
2017-10-15T22:33:05.176Z,21.9
2017-10-15T22:35:05.332Z,21.9
2017-10-15T22:37:05.474Z,21.9
2017-10-15T22:39:05.606Z,21.9
2017-10-15T22:41:05.713Z,21.9